ARG1333 SACO-SABE
Flight info
| Callsign | ARG1333 |
|---|---|
| Flight time | N/A |
| Altitude | 37000 |
| Route | UTRAX UW24 SNT SNT9R |
| Aircraft | B738/M-SDE2E3FGHIRWXY/LB1 |
Departure
| Time | 2026-05-03 21:26 |
|---|---|
| Airport | Ingeniero Aeronáutico Ambrosio L.V. Taravella International Airport (SACO) |
Arrival
| Time | N/A |
|---|---|
| Airport | Aeroparque Jorge Newbery (SABE) |
| Time | Latitude | Longitude | Altitude | Speed | Heading |
|---|---|---|---|---|---|
| 2026-05-03 21:04 | -31.31487 | -64.21181 | 1613 ft | 0 kts | 258° |
| 2026-05-03 21:13 | -31.31482 | -64.21160 | 1613 ft | 4 kts | 250° |
| 2026-05-03 21:13 | -31.31470 | -64.21132 | 1616 ft | 4 kts | 233° |
| 2026-05-03 21:14 | -31.31452 | -64.21110 | 1617 ft | 4 kts | 209° |
| 2026-05-03 21:14 | -31.31427 | -64.21100 | 1614 ft | 4 kts | 186° |
| 2026-05-03 21:14 | -31.31400 | -64.21099 | 1622 ft | 4 kts | 174° |
| 2026-05-03 21:14 | -31.31380 | -64.21101 | 1617 ft | 0 kts | 181° |
| 2026-05-03 21:17 | -31.31387 | -64.21101 | 1619 ft | 5 kts | 180° |
| 2026-05-03 21:18 | -31.31447 | -64.21097 | 1620 ft | 10 kts | 165° |
| 2026-05-03 21:18 | -31.31533 | -64.21083 | 1616 ft | 15 kts | 189° |
| 2026-05-03 21:18 | -31.31645 | -64.21101 | 1620 ft | 19 kts | 180° |
| 2026-05-03 21:18 | -31.31772 | -64.21048 | 1612 ft | 21 kts | 146° |
| 2026-05-03 21:19 | -31.31919 | -64.21028 | 1614 ft | 24 kts | 180° |
| 2026-05-03 21:19 | -31.32099 | -64.21025 | 1617 ft | 28 kts | 179° |
| 2026-05-03 21:19 | -31.32283 | -64.21021 | 1621 ft | 18 kts | 179° |
| 2026-05-03 21:19 | -31.32357 | -64.21019 | 1614 ft | 0 kts | 178° |
| 2026-05-03 21:20 | -31.32358 | -64.21019 | 1614 ft | 1 kts | 178° |
| 2026-05-03 21:21 | -31.32384 | -64.21013 | 1615 ft | 7 kts | 160° |
| 2026-05-03 21:21 | -31.32396 | -64.21005 | 1615 ft | 0 kts | 148° |
| 2026-05-03 21:22 | -31.32403 | -64.20999 | 1616 ft | 6 kts | 143° |
| 2026-05-03 21:22 | -31.32432 | -64.20911 | 1612 ft | 17 kts | 82° |
| 2026-05-03 21:23 | -31.32334 | -64.20769 | 1610 ft | 30 kts | 44° |
| 2026-05-03 21:23 | -31.32273 | -64.20697 | 1613 ft | 0 kts | 44° |
| 2026-05-03 21:25 | -31.32272 | -64.20697 | 1613 ft | 1 kts | 44° |
| 2026-05-03 21:25 | -31.32078 | -64.20477 | 1612 ft | 83 kts | 44° |
| 2026-05-03 21:25 | -31.31466 | -64.19790 | 1612 ft | 159 kts | 44° |
| 2026-05-03 21:26 | -31.30538 | -64.18742 | 1886 ft | 204 kts | 44° |
| 2026-05-03 21:26 | -31.29485 | -64.17546 | 2557 ft | 214 kts | 44° |
| 2026-05-03 21:26 | -31.28406 | -64.16316 | 2516 ft | 214 kts | 44° |
| 2026-05-03 21:26 | -31.27397 | -64.15156 | 2430 ft | 194 kts | 45° |
| 2026-05-03 21:27 | -31.26411 | -64.14091 | 2017 ft | 190 kts | 40° |
| 2026-05-03 21:27 | -31.25480 | -64.13098 | 1944 ft | 177 kts | 43° |
| 2026-05-03 21:27 | -31.24631 | -64.12109 | 2038 ft | 170 kts | 51° |
| 2026-05-03 21:27 | -31.24072 | -64.10879 | 2235 ft | 177 kts | 81° |
| 2026-05-03 21:28 | -31.24102 | -64.09454 | 2508 ft | 168 kts | 98° |
| 2026-05-03 21:28 | -31.24393 | -64.08149 | 3187 ft | 169 kts | 101° |
| 2026-05-03 21:28 | -31.24511 | -64.06765 | 3795 ft | 169 kts | 93° |
| 2026-05-03 21:28 | -31.24575 | -64.05433 | 4459 ft | 167 kts | 93° |
| 2026-05-03 21:29 | -31.24635 | -64.04086 | 5047 ft | 171 kts | 93° |
| 2026-05-03 21:29 | -31.24699 | -64.02643 | 5504 ft | 182 kts | 93° |
| 2026-05-03 21:29 | -31.24764 | -64.01146 | 6085 ft | 186 kts | 93° |
| 2026-05-03 21:29 | -31.24829 | -63.99631 | 6705 ft | 187 kts | 93° |
| 2026-05-03 21:30 | -31.24895 | -63.98103 | 7309 ft | 189 kts | 93° |
| 2026-05-03 21:30 | -31.24960 | -63.96562 | 7909 ft | 191 kts | 93° |
| 2026-05-03 21:30 | -31.25026 | -63.95008 | 8486 ft | 193 kts | 93° |
| 2026-05-03 21:30 | -31.25091 | -63.93463 | 9046 ft | 194 kts | 93° |
| 2026-05-03 21:31 | -31.25157 | -63.91886 | 9615 ft | 195 kts | 93° |
| 2026-05-03 21:31 | -31.25224 | -63.90299 | 10128 ft | 196 kts | 92° |
| 2026-05-03 21:31 | -31.25313 | -63.88698 | 10601 ft | 198 kts | 102° |
| 2026-05-03 21:31 | -31.26020 | -63.87356 | 10966 ft | 199 kts | 148° |
| 2026-05-03 21:32 | -31.27275 | -63.86754 | 11381 ft | 198 kts | 162° |
| 2026-05-03 21:32 | -31.28595 | -63.86251 | 11765 ft | 201 kts | 162° |
| 2026-05-03 21:32 | -31.29927 | -63.85748 | 12135 ft | 202 kts | 162° |
| 2026-05-03 21:32 | -31.31267 | -63.85244 | 12482 ft | 203 kts | 162° |
| 2026-05-03 21:33 | -31.32617 | -63.84737 | 12808 ft | 204 kts | 162° |
| 2026-05-03 21:33 | -31.33976 | -63.84229 | 13130 ft | 206 kts | 162° |
| 2026-05-03 21:33 | -31.35340 | -63.83718 | 13444 ft | 207 kts | 163° |
| 2026-05-03 21:33 | -31.36714 | -63.83204 | 13761 ft | 208 kts | 163° |
| 2026-05-03 21:34 | -31.38094 | -63.82688 | 14066 ft | 209 kts | 163° |
| 2026-05-03 21:34 | -31.39478 | -63.82170 | 14375 ft | 210 kts | 163° |
| 2026-05-03 21:34 | -31.40872 | -63.81649 | 14673 ft | 211 kts | 163° |
| 2026-05-03 21:34 | -31.42270 | -63.81127 | 14968 ft | 212 kts | 163° |
| 2026-05-03 21:35 | -31.43222 | -63.80771 | 15165 ft | 212 kts | 163° |
| 2026-05-03 21:35 | -31.44614 | -63.80250 | 15445 ft | 213 kts | 163° |
| 2026-05-03 21:35 | -31.46028 | -63.79722 | 15726 ft | 214 kts | 163° |
| 2026-05-03 21:35 | -31.47453 | -63.79190 | 16003 ft | 215 kts | 163° |
| 2026-05-03 21:36 | -31.48884 | -63.78655 | 16274 ft | 216 kts | 163° |
| 2026-05-03 21:36 | -31.50319 | -63.78120 | 16540 ft | 217 kts | 163° |
| 2026-05-03 21:36 | -31.51759 | -63.77582 | 16803 ft | 218 kts | 163° |
| 2026-05-03 21:36 | -31.53207 | -63.77041 | 17060 ft | 219 kts | 163° |
| 2026-05-03 21:37 | -31.54661 | -63.76499 | 17313 ft | 220 kts | 163° |
| 2026-05-03 21:37 | -31.56129 | -63.75934 | 17447 ft | 227 kts | 161° |
| 2026-05-03 21:37 | -31.57620 | -63.75304 | 17527 ft | 236 kts | 160° |
| 2026-05-03 21:37 | -31.59197 | -63.74537 | 17602 ft | 245 kts | 155° |
| 2026-05-03 21:38 | -31.60723 | -63.73574 | 17671 ft | 254 kts | 149° |
| 2026-05-03 21:38 | -31.62205 | -63.72396 | 17733 ft | 261 kts | 143° |
| 2026-05-03 21:38 | -31.63638 | -63.71037 | 17792 ft | 268 kts | 139° |
| 2026-05-03 21:38 | -31.65029 | -63.69537 | 17836 ft | 274 kts | 136° |
| 2026-05-03 21:39 | -31.66384 | -63.67930 | 17878 ft | 280 kts | 134° |
| 2026-05-03 21:39 | -31.67722 | -63.66237 | 17910 ft | 285 kts | 132° |
| 2026-05-03 21:39 | -31.69047 | -63.64481 | 17948 ft | 289 kts | 131° |
| 2026-05-03 21:39 | -31.70348 | -63.62704 | 17972 ft | 292 kts | 130° |
| 2026-05-03 21:40 | -31.71664 | -63.60868 | 17988 ft | 296 kts | 130° |
| 2026-05-03 21:40 | -31.72986 | -63.59001 | 18009 ft | 298 kts | 130° |
| 2026-05-03 21:40 | -31.74310 | -63.57115 | 18023 ft | 300 kts | 129° |
| 2026-05-03 21:40 | -31.75640 | -63.55211 | 18045 ft | 302 kts | 129° |
| 2026-05-03 21:41 | -31.76974 | -63.53294 | 18066 ft | 304 kts | 129° |
| 2026-05-03 21:41 | -31.78306 | -63.51376 | 18225 ft | 298 kts | 129° |
| 2026-05-03 21:41 | -31.79589 | -63.49527 | 18594 ft | 286 kts | 129° |
| 2026-05-03 21:41 | -31.80831 | -63.47735 | 18921 ft | 280 kts | 129° |
| 2026-05-03 21:42 | -31.82049 | -63.45977 | 19254 ft | 275 kts | 129° |
| 2026-05-03 21:42 | -31.83250 | -63.44241 | 19576 ft | 273 kts | 129° |
| 2026-05-03 21:42 | -31.84447 | -63.42511 | 19953 ft | 271 kts | 129° |
| 2026-05-03 21:42 | -31.85628 | -63.40805 | 20322 ft | 269 kts | 129° |
| 2026-05-03 21:43 | -31.86810 | -63.39094 | 20691 ft | 267 kts | 129° |
| 2026-05-03 21:43 | -31.87980 | -63.37401 | 20931 ft | 271 kts | 129° |
| 2026-05-03 21:43 | -31.89191 | -63.35639 | 20987 ft | 282 kts | 129° |
| 2026-05-03 21:43 | -31.90434 | -63.33805 | 21063 ft | 291 kts | 129° |
| 2026-05-03 21:44 | -31.91710 | -63.31911 | 21140 ft | 300 kts | 128° |
| 2026-05-03 21:44 | -31.93022 | -63.29963 | 21208 ft | 308 kts | 128° |
| 2026-05-03 21:44 | -31.94369 | -63.27961 | 21269 ft | 316 kts | 128° |
| 2026-05-03 21:44 | -31.95751 | -63.25906 | 21324 ft | 323 kts | 128° |
| 2026-05-03 21:45 | -31.97159 | -63.23813 | 21376 ft | 330 kts | 128° |
| 2026-05-03 21:45 | -31.98595 | -63.21676 | 21415 ft | 336 kts | 128° |
| 2026-05-03 21:45 | -32.00056 | -63.19502 | 21458 ft | 341 kts | 128° |
| 2026-05-03 21:45 | -32.01541 | -63.17292 | 21487 ft | 346 kts | 128° |
| 2026-05-03 21:46 | -32.03041 | -63.15057 | 21525 ft | 350 kts | 128° |
| 2026-05-03 21:46 | -32.04561 | -63.12792 | 21553 ft | 354 kts | 128° |
| 2026-05-03 21:46 | -32.06079 | -63.10529 | 21577 ft | 358 kts | 128° |
| 2026-05-03 21:46 | -32.07627 | -63.08219 | 21598 ft | 361 kts | 128° |
| 2026-05-03 21:47 | -32.09186 | -63.05892 | 21625 ft | 363 kts | 128° |
| 2026-05-03 21:47 | -32.10759 | -63.03541 | 21641 ft | 366 kts | 128° |
| 2026-05-03 21:47 | -32.12338 | -63.01182 | 21649 ft | 368 kts | 128° |
| 2026-05-03 21:47 | -32.13923 | -62.98810 | 21823 ft | 362 kts | 128° |
| 2026-05-03 21:48 | -32.15425 | -62.96563 | 22663 ft | 340 kts | 128° |
| 2026-05-03 21:48 | -32.16860 | -62.94413 | 23220 ft | 326 kts | 128° |
| 2026-05-03 21:48 | -32.18232 | -62.92357 | 23803 ft | 312 kts | 128° |
| 2026-05-03 21:48 | -32.19552 | -62.90379 | 24252 ft | 304 kts | 128° |
| 2026-05-03 21:49 | -32.20844 | -62.88441 | 24604 ft | 297 kts | 128° |
| 2026-05-03 21:49 | -32.22109 | -62.86542 | 24958 ft | 291 kts | 128° |
| 2026-05-03 21:49 | -32.23344 | -62.84689 | 25307 ft | 284 kts | 128° |
| 2026-05-03 21:49 | -32.24574 | -62.82841 | 25311 ft | 293 kts | 128° |
| 2026-05-03 21:50 | -32.25879 | -62.80880 | 25064 ft | 310 kts | 128° |
| 2026-05-03 21:50 | -32.27222 | -62.78862 | 25127 ft | 315 kts | 128° |
| 2026-05-03 21:50 | -32.28570 | -62.76834 | 25158 ft | 320 kts | 128° |
| 2026-05-03 21:50 | -32.29976 | -62.74718 | 25198 ft | 326 kts | 128° |
| 2026-05-03 21:51 | -32.31365 | -62.72626 | 25234 ft | 330 kts | 128° |
| 2026-05-03 21:51 | -32.32793 | -62.70474 | 25262 ft | 335 kts | 128° |
| 2026-05-03 21:51 | -32.34237 | -62.68296 | 25296 ft | 339 kts | 128° |
| 2026-05-03 21:51 | -32.35697 | -62.66093 | 25321 ft | 342 kts | 128° |
| 2026-05-03 21:52 | -32.37174 | -62.63863 | 25339 ft | 346 kts | 128° |
| 2026-05-03 21:52 | -32.38665 | -62.61612 | 25361 ft | 349 kts | 128° |
| 2026-05-03 21:52 | -32.40167 | -62.59341 | 25388 ft | 352 kts | 128° |
| 2026-05-03 21:52 | -32.41682 | -62.57050 | 25407 ft | 354 kts | 128° |
| 2026-05-03 21:53 | -32.43208 | -62.54742 | 25425 ft | 357 kts | 128° |
| 2026-05-03 21:53 | -32.44739 | -62.52422 | 25438 ft | 359 kts | 128° |
| 2026-05-03 21:53 | -32.46284 | -62.50082 | 25452 ft | 361 kts | 128° |
| 2026-05-03 21:53 | -32.47834 | -62.47732 | 25464 ft | 363 kts | 128° |
| 2026-05-03 21:54 | -32.49389 | -62.45372 | 25474 ft | 364 kts | 128° |
| 2026-05-03 21:54 | -32.50951 | -62.43002 | 25488 ft | 366 kts | 128° |
| 2026-05-03 21:54 | -32.52516 | -62.40624 | 25495 ft | 367 kts | 128° |
| 2026-05-03 21:54 | -32.54089 | -62.38233 | 25500 ft | 368 kts | 128° |
| 2026-05-03 21:55 | -32.55650 | -62.35859 | 25724 ft | 361 kts | 128° |
| 2026-05-03 21:55 | -32.57161 | -62.33559 | 26003 ft | 354 kts | 128° |
| 2026-05-03 21:55 | -32.58660 | -62.31275 | 26286 ft | 348 kts | 128° |
| 2026-05-03 21:55 | -32.60133 | -62.29032 | 26569 ft | 342 kts | 128° |
| 2026-05-03 21:56 | -32.61581 | -62.26824 | 26866 ft | 336 kts | 128° |
| 2026-05-03 21:56 | -32.63014 | -62.24637 | 26967 ft | 336 kts | 128° |
| 2026-05-03 21:56 | -32.64454 | -62.22439 | 26998 ft | 339 kts | 128° |
| 2026-05-03 21:56 | -32.65907 | -62.20221 | 27005 ft | 342 kts | 128° |
| 2026-05-03 21:57 | -32.67371 | -62.17983 | 27015 ft | 345 kts | 128° |
| 2026-05-03 21:57 | -32.68847 | -62.15722 | 27012 ft | 347 kts | 127° |
| 2026-05-03 21:57 | -32.70273 | -62.13395 | 27012 ft | 350 kts | 125° |
| 2026-05-03 21:57 | -32.71666 | -62.11014 | 27010 ft | 352 kts | 124° |
| 2026-05-03 21:58 | -32.73056 | -62.08606 | 27010 ft | 354 kts | 124° |
| 2026-05-03 21:58 | -32.74451 | -62.06188 | 27011 ft | 356 kts | 124° |
| 2026-05-03 21:58 | -32.75858 | -62.03757 | 27010 ft | 358 kts | 124° |
| 2026-05-03 21:58 | -32.77272 | -62.01319 | 27005 ft | 358 kts | 124° |
| 2026-05-03 21:59 | -32.78686 | -61.98889 | 26996 ft | 357 kts | 125° |
| 2026-05-03 21:59 | -32.80098 | -61.96464 | 26996 ft | 356 kts | 125° |
| 2026-05-03 21:59 | -32.81506 | -61.94047 | 26996 ft | 355 kts | 125° |
| 2026-05-03 21:59 | -32.82913 | -61.91632 | 26997 ft | 354 kts | 125° |
| 2026-05-03 22:00 | -32.84314 | -61.89228 | 26999 ft | 354 kts | 125° |
| 2026-05-03 22:00 | -32.85695 | -61.86856 | 26999 ft | 353 kts | 125° |
| 2026-05-03 22:00 | -32.87091 | -61.84456 | 27001 ft | 353 kts | 125° |
| 2026-05-03 22:00 | -32.88487 | -61.82056 | 26999 ft | 352 kts | 125° |
| 2026-05-03 22:01 | -32.89876 | -61.79665 | 27002 ft | 352 kts | 125° |
| 2026-05-03 22:01 | -32.91267 | -61.77271 | 27001 ft | 351 kts | 125° |
| 2026-05-03 22:01 | -32.92657 | -61.74876 | 27001 ft | 351 kts | 124° |
| 2026-05-03 22:01 | -32.94042 | -61.72488 | 27000 ft | 351 kts | 124° |
| 2026-05-03 22:02 | -32.95429 | -61.70096 | 27001 ft | 350 kts | 124° |
| 2026-05-03 22:02 | -32.96812 | -61.67708 | 27001 ft | 350 kts | 124° |
| 2026-05-03 22:02 | -32.98194 | -61.65321 | 27002 ft | 350 kts | 124° |
| 2026-05-03 22:02 | -32.99574 | -61.62935 | 27002 ft | 350 kts | 124° |
| 2026-05-03 22:03 | -33.00957 | -61.60543 | 27001 ft | 350 kts | 124° |
| 2026-05-03 22:03 | -33.02334 | -61.58160 | 27001 ft | 349 kts | 124° |
| 2026-05-03 22:03 | -33.03713 | -61.55772 | 27001 ft | 349 kts | 124° |
| 2026-05-03 22:03 | -33.05090 | -61.53385 | 27002 ft | 349 kts | 124° |
| 2026-05-03 22:04 | -33.06464 | -61.51003 | 27000 ft | 349 kts | 124° |
| 2026-05-03 22:04 | -33.07841 | -61.48615 | 27000 ft | 349 kts | 124° |
| 2026-05-03 22:04 | -33.09215 | -61.46229 | 27001 ft | 349 kts | 124° |
| 2026-05-03 22:04 | -33.10587 | -61.43845 | 27001 ft | 349 kts | 124° |
| 2026-05-03 22:05 | -33.11942 | -61.41490 | 27002 ft | 349 kts | 124° |
| 2026-05-03 22:05 | -33.13311 | -61.39107 | 27001 ft | 349 kts | 124° |
| 2026-05-03 22:05 | -33.14682 | -61.36721 | 27001 ft | 349 kts | 124° |
| 2026-05-03 22:05 | -33.16054 | -61.34331 | 27001 ft | 349 kts | 124° |
| 2026-05-03 22:06 | -33.17422 | -61.31945 | 27001 ft | 349 kts | 124° |
| 2026-05-03 22:06 | -33.18792 | -61.29556 | 27002 ft | 348 kts | 124° |
| 2026-05-03 22:06 | -33.20160 | -61.27168 | 27000 ft | 348 kts | 124° |
| 2026-05-03 22:06 | -33.21529 | -61.24777 | 27000 ft | 348 kts | 124° |
| 2026-05-03 22:07 | -33.22897 | -61.22386 | 27002 ft | 348 kts | 124° |
| 2026-05-03 22:07 | -33.24263 | -61.19997 | 27001 ft | 348 kts | 124° |
| 2026-05-03 22:07 | -33.25627 | -61.17611 | 27001 ft | 348 kts | 124° |
| 2026-05-03 22:07 | -33.26994 | -61.15218 | 27001 ft | 348 kts | 124° |
| 2026-05-03 22:08 | -33.28361 | -61.12824 | 27001 ft | 348 kts | 124° |
| 2026-05-03 22:08 | -33.29721 | -61.10428 | 27000 ft | 348 kts | 124° |
| 2026-05-03 22:08 | -33.31077 | -61.08023 | 27001 ft | 348 kts | 124° |
| 2026-05-03 22:08 | -33.32429 | -61.05622 | 27001 ft | 348 kts | 124° |
| 2026-05-03 22:09 | -33.33782 | -61.03221 | 27001 ft | 348 kts | 124° |
| 2026-05-03 22:09 | -33.35138 | -61.00814 | 27003 ft | 349 kts | 124° |
| 2026-05-03 22:09 | -33.36490 | -60.98411 | 27002 ft | 349 kts | 124° |
| 2026-05-03 22:10 | -33.39201 | -60.93592 | 26948 ft | 350 kts | 124° |
| 2026-05-03 22:10 | -33.40559 | -60.91177 | 26995 ft | 349 kts | 124° |
| 2026-05-03 22:10 | -33.41911 | -60.88769 | 26990 ft | 349 kts | 124° |
| 2026-05-03 22:10 | -33.43268 | -60.86352 | 26997 ft | 349 kts | 124° |
| 2026-05-03 22:11 | -33.44619 | -60.83942 | 27001 ft | 349 kts | 124° |
| 2026-05-03 22:11 | -33.45952 | -60.81563 | 27003 ft | 349 kts | 124° |
| 2026-05-03 22:11 | -33.47304 | -60.79150 | 27001 ft | 349 kts | 124° |
| 2026-05-03 22:11 | -33.48655 | -60.76736 | 27001 ft | 349 kts | 124° |
| 2026-05-03 22:12 | -33.50004 | -60.74323 | 27002 ft | 349 kts | 124° |
| 2026-05-03 22:12 | -33.51357 | -60.71904 | 27001 ft | 349 kts | 124° |
| 2026-05-03 22:12 | -33.52704 | -60.69491 | 27002 ft | 349 kts | 124° |
| 2026-05-03 22:12 | -33.54053 | -60.67075 | 27002 ft | 349 kts | 124° |
| 2026-05-03 22:13 | -33.55403 | -60.64654 | 27002 ft | 349 kts | 124° |
| 2026-05-03 22:13 | -33.56750 | -60.62237 | 27002 ft | 349 kts | 124° |
| 2026-05-03 22:13 | -33.58098 | -60.59818 | 27001 ft | 349 kts | 124° |
| 2026-05-03 22:13 | -33.59446 | -60.57397 | 27001 ft | 349 kts | 124° |
| 2026-05-03 22:14 | -33.60793 | -60.54975 | 27002 ft | 349 kts | 124° |
| 2026-05-03 22:14 | -33.62140 | -60.52553 | 27002 ft | 349 kts | 124° |
| 2026-05-03 22:14 | -33.63488 | -60.50127 | 27002 ft | 349 kts | 124° |
| 2026-05-03 22:14 | -33.64831 | -60.47706 | 27002 ft | 350 kts | 124° |
| 2026-05-03 22:15 | -33.66198 | -60.45244 | 27023 ft | 361 kts | 124° |
| 2026-05-03 22:15 | -33.67614 | -60.42689 | 27021 ft | 374 kts | 124° |
| 2026-05-03 22:15 | -33.69082 | -60.40040 | 27019 ft | 387 kts | 124° |
| 2026-05-03 22:15 | -33.70594 | -60.37310 | 27019 ft | 397 kts | 123° |
| 2026-05-03 22:16 | -33.72154 | -60.34551 | 26999 ft | 399 kts | 129° |
| 2026-05-03 22:16 | -33.74237 | -60.32417 | 27002 ft | 394 kts | 153° |
| 2026-05-03 22:16 | -33.76827 | -60.31434 | 27006 ft | 391 kts | 173° |
| 2026-05-03 22:16 | -33.79533 | -60.31227 | 27003 ft | 389 kts | 179° |
| 2026-05-03 22:17 | -33.82229 | -60.31040 | 26978 ft | 390 kts | 167° |
| 2026-05-03 22:17 | -33.84686 | -60.29733 | 27005 ft | 388 kts | 143° |
| 2026-05-03 22:17 | -33.86486 | -60.27332 | 26998 ft | 389 kts | 118° |
| 2026-05-03 22:17 | -33.87517 | -60.24330 | 27020 ft | 390 kts | 109° |
| 2026-05-03 22:18 | -33.88419 | -60.21246 | 27004 ft | 392 kts | 110° |
| 2026-05-03 22:18 | -33.89408 | -60.18176 | 27000 ft | 394 kts | 112° |
| 2026-05-03 22:18 | -33.90510 | -60.15156 | 26978 ft | 394 kts | 115° |
| 2026-05-03 22:18 | -33.91694 | -60.12205 | 26680 ft | 388 kts | 117° |
| 2026-05-03 22:19 | -33.92929 | -60.09315 | 26121 ft | 390 kts | 118° |
| 2026-05-03 22:19 | -33.94209 | -60.06423 | 25506 ft | 392 kts | 118° |
| 2026-05-03 22:19 | -33.95512 | -60.03531 | 24889 ft | 394 kts | 118° |
| 2026-05-03 22:19 | -33.96829 | -60.00626 | 24270 ft | 396 kts | 118° |
| 2026-05-03 22:20 | -33.98131 | -59.97754 | 23660 ft | 397 kts | 118° |
| 2026-05-03 22:20 | -33.99455 | -59.94832 | 23044 ft | 398 kts | 118° |
| 2026-05-03 22:20 | -34.00780 | -59.91903 | 22419 ft | 398 kts | 118° |
| 2026-05-03 22:20 | -34.02103 | -59.88972 | 21797 ft | 398 kts | 118° |
| 2026-05-03 22:21 | -34.03426 | -59.86038 | 21174 ft | 398 kts | 118° |
| 2026-05-03 22:21 | -34.04746 | -59.83107 | 20553 ft | 398 kts | 118° |
| 2026-05-03 22:21 | -34.06057 | -59.80192 | 20172 ft | 391 kts | 118° |
| 2026-05-03 22:21 | -34.07329 | -59.77362 | 20048 ft | 377 kts | 118° |
| 2026-05-03 22:22 | -34.08556 | -59.74629 | 20000 ft | 363 kts | 118° |
| 2026-05-03 22:22 | -34.09732 | -59.72010 | 19986 ft | 348 kts | 118° |
| 2026-05-03 22:22 | -34.10865 | -59.69483 | 19986 ft | 339 kts | 118° |
| 2026-05-03 22:22 | -34.11989 | -59.66974 | 20001 ft | 341 kts | 118° |
| 2026-05-03 22:23 | -34.13120 | -59.64448 | 20007 ft | 343 kts | 118° |
| 2026-05-03 22:23 | -34.14255 | -59.61911 | 20011 ft | 344 kts | 118° |
| 2026-05-03 22:23 | -34.15025 | -59.60190 | 20010 ft | 345 kts | 118° |
| 2026-05-03 22:23 | -34.16165 | -59.57639 | 20011 ft | 346 kts | 118° |
| 2026-05-03 22:24 | -34.17307 | -59.55082 | 19981 ft | 346 kts | 118° |
| 2026-05-03 22:24 | -34.18449 | -59.52522 | 19478 ft | 351 kts | 118° |
| 2026-05-03 22:24 | -34.19588 | -59.49969 | 19000 ft | 352 kts | 118° |
| 2026-05-03 22:24 | -34.20763 | -59.47332 | 18503 ft | 353 kts | 118° |
| 2026-05-03 22:25 | -34.21928 | -59.44717 | 18003 ft | 353 kts | 118° |
| 2026-05-03 22:25 | -34.23146 | -59.42146 | 17501 ft | 353 kts | 122° |
| 2026-05-03 22:25 | -34.24459 | -59.39630 | 17010 ft | 353 kts | 123° |
| 2026-05-03 22:25 | -34.25797 | -59.37139 | 16513 ft | 353 kts | 123° |
| 2026-05-03 22:26 | -34.27139 | -59.34649 | 15916 ft | 355 kts | 123° |
| 2026-05-03 22:26 | -34.28498 | -59.32115 | 15158 ft | 362 kts | 123° |
| 2026-05-03 22:26 | -34.29873 | -59.29534 | 14416 ft | 367 kts | 123° |
| 2026-05-03 22:26 | -34.31259 | -59.26918 | 13671 ft | 371 kts | 123° |
| 2026-05-03 22:27 | -34.32651 | -59.24281 | 12924 ft | 374 kts | 122° |
| 2026-05-03 22:27 | -34.34052 | -59.21618 | 12176 ft | 376 kts | 122° |
| 2026-05-03 22:27 | -34.35461 | -59.18938 | 11427 ft | 377 kts | 122° |
| 2026-05-03 22:27 | -34.36872 | -59.16249 | 10686 ft | 378 kts | 122° |
| 2026-05-03 22:28 | -34.38264 | -59.13594 | 10347 ft | 368 kts | 122° |
| 2026-05-03 22:28 | -34.39603 | -59.11038 | 10200 ft | 352 kts | 122° |
| 2026-05-03 22:28 | -34.40891 | -59.08578 | 10042 ft | 339 kts | 122° |
| 2026-05-03 22:28 | -34.42150 | -59.06171 | 9465 ft | 340 kts | 122° |
| 2026-05-03 22:29 | -34.43418 | -59.03747 | 8851 ft | 342 kts | 122° |
| 2026-05-03 22:29 | -34.44695 | -59.01303 | 8230 ft | 343 kts | 122° |
| 2026-05-03 22:29 | -34.45957 | -58.98886 | 7617 ft | 344 kts | 122° |
| 2026-05-03 22:29 | -34.47238 | -58.96431 | 6992 ft | 345 kts | 122° |
| 2026-05-03 22:30 | -34.48520 | -58.93973 | 6370 ft | 345 kts | 122° |
| 2026-05-03 22:30 | -34.49799 | -58.91518 | 5749 ft | 345 kts | 122° |
| 2026-05-03 22:30 | -34.51043 | -58.89128 | 5257 ft | 341 kts | 122° |
| 2026-05-03 22:30 | -34.52282 | -58.86747 | 5090 ft | 327 kts | 122° |
| 2026-05-03 22:31 | -34.53469 | -58.84465 | 5006 ft | 312 kts | 122° |
| 2026-05-03 22:31 | -34.54598 | -58.82294 | 4989 ft | 296 kts | 122° |
| 2026-05-03 22:31 | -34.55668 | -58.80234 | 4983 ft | 281 kts | 122° |
| 2026-05-03 22:31 | -34.56600 | -58.78206 | 4991 ft | 273 kts | 112° |
| 2026-05-03 22:32 | -34.57239 | -58.76041 | 5007 ft | 273 kts | 108° |
| 2026-05-03 22:32 | -34.57808 | -58.73837 | 5012 ft | 274 kts | 107° |
| 2026-05-03 22:32 | -34.58378 | -58.71625 | 5009 ft | 275 kts | 108° |
| 2026-05-03 22:32 | -34.58967 | -58.69405 | 4742 ft | 282 kts | 108° |
| 2026-05-03 22:33 | -34.59580 | -58.67146 | 4308 ft | 280 kts | 108° |
| 2026-05-03 22:33 | -34.60192 | -58.64919 | 3883 ft | 276 kts | 108° |
| 2026-05-03 22:33 | -34.60798 | -58.62719 | 3457 ft | 273 kts | 108° |
| 2026-05-03 22:33 | -34.61395 | -58.60541 | 3083 ft | 269 kts | 108° |
| 2026-05-03 22:34 | -34.61970 | -58.58396 | 3028 ft | 269 kts | 108° |
| 2026-05-03 22:34 | -34.62542 | -58.56247 | 3002 ft | 266 kts | 108° |
| 2026-05-03 22:34 | -34.63111 | -58.54110 | 3012 ft | 266 kts | 108° |
| 2026-05-03 22:34 | -34.63679 | -58.51975 | 3011 ft | 265 kts | 108° |
| 2026-05-03 22:35 | -34.64237 | -58.49876 | 2995 ft | 257 kts | 108° |
| 2026-05-03 22:35 | -34.64771 | -58.47867 | 2993 ft | 250 kts | 108° |
| 2026-05-03 22:35 | -34.65303 | -58.45865 | 3002 ft | 249 kts | 108° |
| 2026-05-03 22:35 | -34.65838 | -58.43852 | 3017 ft | 253 kts | 108° |
| 2026-05-03 22:36 | -34.66381 | -58.41809 | 3018 ft | 255 kts | 108° |
| 2026-05-03 22:36 | -34.66925 | -58.39755 | 3019 ft | 256 kts | 108° |
| 2026-05-03 22:36 | -34.67471 | -58.37696 | 3015 ft | 256 kts | 108° |
| 2026-05-03 22:36 | -34.68017 | -58.35638 | 3007 ft | 256 kts | 108° |
| 2026-05-03 22:37 | -34.68559 | -58.33589 | 3002 ft | 254 kts | 108° |
| 2026-05-03 22:37 | -34.69093 | -58.31571 | 2992 ft | 247 kts | 108° |
| 2026-05-03 22:37 | -34.69607 | -58.29626 | 2986 ft | 235 kts | 108° |
| 2026-05-03 22:37 | -34.70062 | -58.27772 | 2987 ft | 224 kts | 98° |
| 2026-05-03 22:38 | -34.69882 | -58.25958 | 3007 ft | 216 kts | 64° |
| 2026-05-03 22:38 | -34.68949 | -58.24572 | 3010 ft | 213 kts | 34° |
| 2026-05-03 22:38 | -34.67599 | -58.23881 | 3011 ft | 211 kts | 9° |
| 2026-05-03 22:38 | -34.66148 | -58.24017 | 3001 ft | 214 kts | 335° |
| 2026-05-03 22:39 | -34.65007 | -58.25170 | 2918 ft | 220 kts | 307° |
| 2026-05-03 22:39 | -34.64128 | -58.26697 | 2632 ft | 217 kts | 303° |
| 2026-05-03 22:39 | -34.63317 | -58.28203 | 2352 ft | 210 kts | 303° |
| 2026-05-03 22:39 | -34.62521 | -58.29668 | 2078 ft | 206 kts | 303° |
| 2026-05-03 22:40 | -34.61723 | -58.31121 | 1799 ft | 208 kts | 303° |
| 2026-05-03 22:40 | -34.60914 | -58.32592 | 1518 ft | 210 kts | 303° |
| 2026-05-03 22:40 | -34.60101 | -58.34066 | 1240 ft | 209 kts | 303° |
| 2026-05-03 22:40 | -34.59291 | -58.35525 | 956 ft | 208 kts | 303° |
| 2026-05-03 22:41 | -34.58495 | -58.36956 | 684 ft | 207 kts | 303° |
| 2026-05-03 22:41 | -34.57679 | -58.38420 | 416 ft | 204 kts | 304° |
| 2026-05-03 22:41 | -34.56941 | -58.39768 | 248 ft | 178 kts | 303° |
| 2026-05-03 22:41 | -34.56275 | -58.40947 | 47 ft | 162 kts | 304° |
| 2026-05-03 22:42 | -34.55616 | -58.42126 | 60 ft | 173 kts | 304° |
| 2026-05-03 22:42 | -34.54949 | -58.43294 | 885 ft | 162 kts | 306° |
| 2026-05-03 22:42 | -34.54231 | -58.44467 | 1410 ft | 181 kts | 311° |
| 2026-05-03 22:42 | -34.53137 | -58.45227 | 2113 ft | 187 kts | 348° |
| 2026-05-03 22:43 | -34.51840 | -58.45169 | 2642 ft | 190 kts | 18° |
| 2026-05-03 22:43 | -34.50731 | -58.44293 | 2889 ft | 195 kts | 50° |